Terminal Aerodrome Forecast
Issued by NWS

Home | Current Version | Previous Version | Text Only | Print | Product List | Glossary On
Versions: 1 2 3 4 5 6 7 8 9 10 11 12 13
000
FTUS43 KBIS 020200 AAA
TAFMOT
TAF AMD
KMOT 020230Z 0203/0224 25010KT P6SM SCT100
     FM021100 26020G30KT P6SM SCT025 BKN040
     FM021500 31025G34KT P6SM VCSH BKN025 OVC040=

USA.gov is the U.S. government's official web portal to all federal, state and local government web resources and services.